createdAt,value
2019-06-15T00:01:31.214Z,17.50
2019-06-15T00:04:11.367Z,17.60
2019-06-15T00:06:52.753Z,17.60
2019-06-15T00:09:32.978Z,17.60
2019-06-15T00:12:12.707Z,17.50
2019-06-15T00:14:53.213Z,17.30
2019-06-15T00:17:33.173Z,17.10
2019-06-15T00:20:13.204Z,17.10
2019-06-15T00:22:53.226Z,17.20
2019-06-15T00:25:20.577Z,17.00
2019-06-15T00:28:07.367Z,17.00
2019-06-15T00:30:47.425Z,16.90
2019-06-15T00:33:27.494Z,16.80
2019-06-15T00:36:07.633Z,16.80
2019-06-15T00:38:47.833Z,16.90
2019-06-15T00:41:28.309Z,16.90
2019-06-15T00:44:08.089Z,17.00
2019-06-15T00:46:47.697Z,16.90
2019-06-15T00:49:27.845Z,16.90
2019-06-15T00:52:08.024Z,16.90
2019-06-15T00:54:50.615Z,17.00
2019-06-15T00:57:30.437Z,17.10
2019-06-15T01:00:10.995Z,17.10
2019-06-15T01:02:50.881Z,17.00
2019-06-15T01:05:30.653Z,17.10
2019-06-15T01:08:10.734Z,17.40
2019-06-15T01:10:50.872Z,17.40
2019-06-15T01:13:30.679Z,17.50
2019-06-15T01:16:10.957Z,17.50
2019-06-15T01:18:50.985Z,17.50
2019-06-15T01:21:30.845Z,17.50
2019-06-15T01:24:11.012Z,17.20
2019-06-15T01:26:50.942Z,17.00
2019-06-15T01:29:30.941Z,17.00
2019-06-15T01:32:10.996Z,16.90
2019-06-15T01:34:51.308Z,16.90
2019-06-15T01:37:31.779Z,17.10
2019-06-15T01:40:11.435Z,17.10
2019-06-15T01:42:51.478Z,17.20
2019-06-15T01:45:31.752Z,17.20
2019-06-15T01:48:11.984Z,17.50
2019-06-15T01:50:51.987Z,17.40
2019-06-15T01:53:31.872Z,17.40
2019-06-15T01:56:11.969Z,17.50
2019-06-15T01:58:52.404Z,17.60
2019-06-15T02:01:32.233Z,17.50
2019-06-15T02:04:13.500Z,17.30
2019-06-15T02:06:53.249Z,17.40
2019-06-15T02:09:33.457Z,17.20
2019-06-15T02:12:13.806Z,17.00
2019-06-15T02:14:55.329Z,17.20
2019-06-15T02:17:35.644Z,17.30
2019-06-15T02:20:19.302Z,17.40
2019-06-15T02:23:02.767Z,17.20
2019-06-15T02:25:42.743Z,17.20
2019-06-15T02:28:22.229Z,17.20
2019-06-15T02:31:02.348Z,17.30
2019-06-15T02:33:42.787Z,17.30
2019-06-15T02:36:22.484Z,17.50
2019-06-15T02:39:02.567Z,17.50
2019-06-15T02:41:44.909Z,17.40
2019-06-15T02:44:25.563Z,17.20
2019-06-15T02:46:52.972Z,17.20
2019-06-15T02:49:39.781Z,17.20
2019-06-15T02:52:19.842Z,17.20
2019-06-15T02:54:59.742Z,17.00
2019-06-15T02:57:39.885Z,17.10
2019-06-15T03:03:43.402Z,17.10
2019-06-15T03:06:23.593Z,17.10
2019-06-15T03:09:04.578Z,16.90
2019-06-15T03:11:44.628Z,16.90
2019-06-15T03:14:24.879Z,16.90
2019-06-15T03:17:05.062Z,16.90
2019-06-15T03:19:45.138Z,16.70
2019-06-15T03:22:25.274Z,16.70
2019-06-15T03:25:05.153Z,16.70
2019-06-15T03:27:45.356Z,16.70
2019-06-15T03:30:25.245Z,16.70
2019-06-15T03:33:05.483Z,16.70
2019-06-15T03:35:45.625Z,16.70
2019-06-15T03:38:25.587Z,16.70
2019-06-15T03:41:05.770Z,16.60
2019-06-15T03:43:45.909Z,16.50
2019-06-15T03:46:26.155Z,16.50
2019-06-15T03:49:05.985Z,16.50
2019-06-15T03:51:46.182Z,16.50
2019-06-15T03:54:26.087Z,16.40
2019-06-15T03:57:06.373Z,16.40
2019-06-15T03:59:46.440Z,16.40
2019-06-15T04:02:26.389Z,16.50
2019-06-15T04:05:06.412Z,16.60
2019-06-15T04:07:46.498Z,16.60
2019-06-15T04:10:26.674Z,16.60
2019-06-15T04:13:06.665Z,16.60
2019-06-15T04:15:47.035Z,16.70
2019-06-15T04:18:27.252Z,16.70
2019-06-15T04:21:07.242Z,16.70
2019-06-15T04:23:47.393Z,16.70
2019-06-15T04:26:35.671Z,16.80
2019-06-15T04:29:09.185Z,17.00
2019-06-15T04:31:49.341Z,17.40
2019-06-15T04:34:29.545Z,18.30
2019-06-15T04:37:09.596Z,19.10
2019-06-15T04:39:49.653Z,19.80
2019-06-15T04:42:29.665Z,20.30
2019-06-15T04:44:56.879Z,20.70
2019-06-15T04:47:43.617Z,20.90
2019-06-15T04:50:23.773Z,20.70
2019-06-15T04:53:03.925Z,20.20
2019-06-15T04:55:44.078Z,19.80
2019-06-15T05:04:24.321Z,19.50
2019-06-15T05:06:51.532Z,19.40
2019-06-15T05:09:38.253Z,19.40
2019-06-15T05:12:19.095Z,19.40
2019-06-15T05:14:59.129Z,19.50
2019-06-15T05:17:39.278Z,19.80
2019-06-15T05:20:19.489Z,19.90
2019-06-15T05:22:59.698Z,20.00
2019-06-15T05:25:39.784Z,20.40
2019-06-15T05:28:20.053Z,20.60
2019-06-15T05:31:00.225Z,20.90
2019-06-15T05:33:42.186Z,21.10
2019-06-15T05:36:22.152Z,21.10
2019-06-15T05:39:02.420Z,21.20
2019-06-15T05:41:44.501Z,21.30
2019-06-15T05:44:24.351Z,21.10
2019-06-15T05:47:04.068Z,21.20
2019-06-15T05:49:44.392Z,21.20
2019-06-15T05:52:24.506Z,21.00
2019-06-15T05:55:04.317Z,20.90
2019-06-15T05:57:44.463Z,20.80
2019-06-15T06:00:24.776Z,20.80
2019-06-15T06:03:04.600Z,20.60
2019-06-15T06:05:44.782Z,20.90
2019-06-15T06:08:24.466Z,20.90
2019-06-15T06:11:04.469Z,20.90
2019-06-15T06:13:44.630Z,21.00
2019-06-15T06:16:24.878Z,20.90
2019-06-15T06:19:05.145Z,20.80
2019-06-15T06:21:45.456Z,20.60
2019-06-15T06:24:25.403Z,20.60
2019-06-15T06:27:05.724Z,20.40
2019-06-15T06:29:45.973Z,20.40
2019-06-15T06:32:25.589Z,20.50
2019-06-15T06:35:05.568Z,20.50
2019-06-15T06:37:45.688Z,20.60
2019-06-15T06:40:26.223Z,20.70
2019-06-15T06:43:05.803Z,20.70
2019-06-15T06:45:45.921Z,20.60
2019-06-15T06:48:25.741Z,20.60
2019-06-15T06:51:05.993Z,20.60
2019-06-15T06:53:46.144Z,20.80
2019-06-15T06:56:26.540Z,20.80
2019-06-15T06:59:06.809Z,20.80
2019-06-15T07:01:46.397Z,20.70
2019-06-15T07:04:26.502Z,20.70
2019-06-15T07:07:06.545Z,20.70
2019-06-15T07:09:47.029Z,20.70
2019-06-15T07:12:26.641Z,20.80
2019-06-15T07:15:07.009Z,20.90
2019-06-15T07:17:46.901Z,20.80
2019-06-15T07:20:27.167Z,20.70
2019-06-15T07:23:07.549Z,20.70
2019-06-15T07:25:34.764Z,20.60
2019-06-15T07:28:21.481Z,20.70
2019-06-15T07:31:01.329Z,20.80
2019-06-15T07:33:41.137Z,20.80
2019-06-15T07:36:22.313Z,20.90
2019-06-15T07:39:02.090Z,21.00
2019-06-15T07:41:44.159Z,21.00
2019-06-15T07:44:24.368Z,21.10
2019-06-15T07:47:04.298Z,21.20
2019-06-15T07:49:44.980Z,21.10
2019-06-15T07:52:24.697Z,21.00
2019-06-15T07:55:04.878Z,21.00
2019-06-15T07:57:44.860Z,21.10
2019-06-15T08:00:25.095Z,21.10
2019-06-15T08:03:04.789Z,21.10
2019-06-15T08:05:45.122Z,21.20
2019-06-15T08:08:25.140Z,21.20
2019-06-15T08:10:52.384Z,21.10
2019-06-15T08:13:39.508Z,21.10
2019-06-15T08:16:19.453Z,21.30
2019-06-15T08:18:59.744Z,21.20
2019-06-15T08:21:39.900Z,21.10
2019-06-15T08:24:20.851Z,21.00
2019-06-15T08:27:00.685Z,21.10
2019-06-15T08:29:40.958Z,21.20
2019-06-15T08:32:21.021Z,21.30
2019-06-15T08:35:01.377Z,21.50
2019-06-15T08:37:41.813Z,21.50
2019-06-15T08:40:21.340Z,21.50
2019-06-15T08:43:01.511Z,21.50
2019-06-15T08:45:41.607Z,21.50
2019-06-15T08:48:21.765Z,21.60
2019-06-15T08:51:01.824Z,21.60
2019-06-15T08:53:41.942Z,21.60
2019-06-15T08:56:21.988Z,21.70
2019-06-15T08:59:02.302Z,21.60
2019-06-15T09:01:42.425Z,21.40
2019-06-15T09:04:09.724Z,21.40
2019-06-15T09:06:56.446Z,21.50
2019-06-15T09:09:36.727Z,21.50
2019-06-15T09:12:16.871Z,21.40
2019-06-15T09:14:57.162Z,21.40
2019-06-15T09:17:37.180Z,21.50
2019-06-15T09:20:17.217Z,21.50
2019-06-15T09:22:57.312Z,21.40
2019-06-15T09:25:37.478Z,21.30
2019-06-15T09:28:18.452Z,21.30
2019-06-15T09:30:58.727Z,21.20
2019-06-15T09:33:38.837Z,21.10
2019-06-15T09:36:18.768Z,21.10
2019-06-15T09:38:59.182Z,21.20
2019-06-15T09:41:39.149Z,21.20
2019-06-15T09:44:19.348Z,21.20
2019-06-15T09:46:59.469Z,21.40
2019-06-15T09:49:26.690Z,21.40
2019-06-15T09:52:13.417Z,21.40
2019-06-15T09:54:52.825Z,21.40
2019-06-15T09:57:33.005Z,21.30
2019-06-15T10:00:12.895Z,21.20
2019-06-15T10:02:52.735Z,21.20
2019-06-15T10:05:32.849Z,21.30
2019-06-15T10:08:13.145Z,21.40
2019-06-15T10:10:53.066Z,21.40
2019-06-15T10:13:33.409Z,21.30
2019-06-15T10:16:13.535Z,21.40
2019-06-15T10:18:53.562Z,21.40
2019-06-15T10:21:34.015Z,21.40
2019-06-15T10:24:14.898Z,21.50
2019-06-15T10:26:55.063Z,21.50
2019-06-15T10:29:42.090Z,21.50
2019-06-15T10:32:17.078Z,21.60
2019-06-15T10:34:57.177Z,21.50
2019-06-15T10:37:37.053Z,21.50
2019-06-15T10:40:17.103Z,21.50
2019-06-15T10:42:57.378Z,21.50
2019-06-15T10:45:37.364Z,21.50
2019-06-15T10:48:17.462Z,21.60
2019-06-15T10:50:57.836Z,21.60
2019-06-15T10:53:37.560Z,21.60
2019-06-15T10:56:18.762Z,21.50
2019-06-15T10:58:59.090Z,21.70
2019-06-15T11:01:38.913Z,21.50
2019-06-15T11:04:19.180Z,21.60
2019-06-15T11:06:59.151Z,21.70
2019-06-15T11:09:40.381Z,21.70
2019-06-15T11:12:20.598Z,21.80
2019-06-15T11:15:00.559Z,21.90
2019-06-15T11:17:40.614Z,22.00
2019-06-15T11:20:20.558Z,22.00
2019-06-15T11:23:00.546Z,21.90
2019-06-15T11:25:41.035Z,21.90
2019-06-15T11:28:21.140Z,21.90
2019-06-15T11:31:01.043Z,21.90
2019-06-15T11:33:41.138Z,22.00
2019-06-15T11:36:21.377Z,22.00
2019-06-15T11:39:01.154Z,22.10
2019-06-15T11:41:28.668Z,22.10
2019-06-15T11:44:15.616Z,22.10
2019-06-15T11:46:55.393Z,22.20
2019-06-15T11:49:35.252Z,22.20
2019-06-15T11:52:15.450Z,22.20
2019-06-15T11:54:55.582Z,22.20
2019-06-15T11:57:22.964Z,22.20
2019-06-15T12:00:09.791Z,22.10
2019-06-15T12:02:49.822Z,22.00
2019-06-15T12:05:29.917Z,21.90
2019-06-15T12:07:57.240Z,21.90
2019-06-15T12:10:44.200Z,22.00
2019-06-15T12:13:11.433Z,22.20
2019-06-15T12:15:58.198Z,22.30
2019-06-15T12:18:25.806Z,22.40
2019-06-15T12:21:13.085Z,22.40
2019-06-15T12:23:53.721Z,22.40
2019-06-15T12:26:33.680Z,22.30
2019-06-15T12:29:01.189Z,22.30
2019-06-15T12:31:48.534Z,22.30
2019-06-15T12:34:16.053Z,22.40
2019-06-15T12:37:02.870Z,22.30
2019-06-15T12:39:30.819Z,22.40
2019-06-15T12:42:17.815Z,22.50
2019-06-15T12:44:57.702Z,22.50
2019-06-15T12:47:38.042Z,22.40
2019-06-15T12:50:18.178Z,22.40
2019-06-15T12:52:58.135Z,22.60
2019-06-15T12:55:38.053Z,22.80
2019-06-15T12:58:18.172Z,22.80
2019-06-15T13:01:02.944Z,22.70
2019-06-15T13:03:27.533Z,22.70
2019-06-15T13:06:14.322Z,22.90
2019-06-15T13:08:54.992Z,22.90
2019-06-15T13:11:34.964Z,22.80
2019-06-15T13:14:15.413Z,22.90
2019-06-15T13:16:43.319Z,23.00
2019-06-15T13:19:10.613Z,23.10
2019-06-15T13:21:50.342Z,23.10
2019-06-15T13:24:30.701Z,23.00
2019-06-15T13:27:10.765Z,22.90
2019-06-15T13:29:50.905Z,22.90
2019-06-15T13:32:31.108Z,22.90
2019-06-15T13:35:11.207Z,22.90
2019-06-15T13:37:51.514Z,22.80
2019-06-15T13:40:18.853Z,22.70
2019-06-15T13:43:06.075Z,22.70
2019-06-15T13:45:46.459Z,22.70
2019-06-15T13:48:27.486Z,22.70
2019-06-15T13:51:07.729Z,22.80
2019-06-15T13:53:48.613Z,22.90
2019-06-15T13:56:29.291Z,23.00
2019-06-15T13:59:09.432Z,22.80
2019-06-15T14:01:50.044Z,22.80
2019-06-15T14:10:09.245Z,23.00
2019-06-15T14:12:49.926Z,23.00
2019-06-15T14:15:32.475Z,23.10
2019-06-15T14:24:15.926Z,23.30
2019-06-15T14:26:56.192Z,23.40
2019-06-15T14:29:36.659Z,23.60
2019-06-15T14:32:16.109Z,23.60
2019-06-15T14:34:56.299Z,23.70
2019-06-15T14:37:36.105Z,23.60
2019-06-15T14:40:16.473Z,23.50
2019-06-15T14:42:56.578Z,23.50
2019-06-15T14:45:36.347Z,23.40
2019-06-15T14:48:16.614Z,23.20
2019-06-15T14:50:56.456Z,23.20
2019-06-15T14:53:38.798Z,23.10
2019-06-15T14:56:18.541Z,23.20
2019-06-15T14:58:58.856Z,23.30
2019-06-15T15:01:38.902Z,23.40
2019-06-15T15:04:18.916Z,23.60
2019-06-15T15:06:58.930Z,23.60
2019-06-15T15:09:26.496Z,23.60
2019-06-15T15:12:15.967Z,23.60
2019-06-15T15:15:07.476Z,23.70
2019-06-15T15:17:47.426Z,23.80
2019-06-15T15:20:27.594Z,24.00
2019-06-15T15:23:07.708Z,23.80
2019-06-15T15:25:47.970Z,23.70
2019-06-15T15:28:15.387Z,23.60
2019-06-15T15:30:42.840Z,23.40
2019-06-15T15:33:23.385Z,23.50
2019-06-15T15:35:50.848Z,23.60
2019-06-15T15:38:38.091Z,23.90
2019-06-15T15:41:06.697Z,23.90
2019-06-15T15:44:00.701Z,23.90
2019-06-15T15:46:42.383Z,24.00
2019-06-15T15:49:22.357Z,24.10
2019-06-15T15:51:49.600Z,24.10
2019-06-15T15:54:36.642Z,24.20
2019-06-15T15:57:17.516Z,24.30
2019-06-15T15:59:46.803Z,24.30
2019-06-15T16:02:45.408Z,24.30
2019-06-15T16:05:16.539Z,24.20
2019-06-15T16:07:43.373Z,24.20
2019-06-15T16:10:30.519Z,24.20
2019-06-15T16:13:11.067Z,24.30
2019-06-15T16:15:50.722Z,24.40
2019-06-15T16:21:29.500Z,24.40
2019-06-15T16:24:09.568Z,24.30
2019-06-15T16:26:49.636Z,24.00
2019-06-15T16:29:29.913Z,23.80
2019-06-15T16:31:57.372Z,23.60
2019-06-15T16:34:47.342Z,23.60
2019-06-15T16:37:46.324Z,23.60
2019-06-15T16:40:26.834Z,23.70
2019-06-15T16:42:56.562Z,23.90
2019-06-15T16:45:49.669Z,23.90
2019-06-15T16:48:29.209Z,24.00
2019-06-15T16:51:09.351Z,23.90
2019-06-15T16:53:49.592Z,23.80
2019-06-15T16:56:17.315Z,23.90
2019-06-15T16:58:46.628Z,23.80
2019-06-15T17:01:46.488Z,23.90
2019-06-15T17:04:26.888Z,23.90
2019-06-15T17:06:56.629Z,24.00
2019-06-15T17:09:53.258Z,24.00
2019-06-15T17:12:33.372Z,24.10
2019-06-15T17:15:13.711Z,24.00
2019-06-15T17:17:41.756Z,24.00
2019-06-15T17:20:10.008Z,24.20
2019-06-15T17:22:50.373Z,24.00
2019-06-15T17:25:31.752Z,23.90
2019-06-15T17:28:11.909Z,23.80
2019-06-15T17:30:39.371Z,23.80
2019-06-15T17:33:36.983Z,24.00
2019-06-15T17:36:28.164Z,24.10
2019-06-15T17:39:08.080Z,24.00
2019-06-15T17:41:48.463Z,24.00
2019-06-15T17:44:29.022Z,24.00
2019-06-15T17:47:09.135Z,23.90
2019-06-15T17:49:49.216Z,24.00
2019-06-15T17:52:16.963Z,24.00
2019-06-15T17:55:12.014Z,23.80
2019-06-15T17:57:52.353Z,23.70
2019-06-15T18:00:32.202Z,23.70
2019-06-15T18:03:12.408Z,23.80
2019-06-15T18:05:52.353Z,23.70
2019-06-15T18:08:32.472Z,23.70
2019-06-15T18:11:12.896Z,23.60
2019-06-15T18:13:52.917Z,23.50
2019-06-15T18:16:33.102Z,23.50
2019-06-15T18:19:13.144Z,23.50
2019-06-15T18:21:53.081Z,23.40
2019-06-15T18:24:33.161Z,23.30
2019-06-15T18:27:13.490Z,23.20
2019-06-15T18:29:53.474Z,23.30
2019-06-15T18:32:37.658Z,22.90
2019-06-15T18:35:17.015Z,22.70
2019-06-15T18:37:56.700Z,22.50
2019-06-15T18:40:37.249Z,22.30
2019-06-15T18:43:17.187Z,22.00
2019-06-15T18:45:57.109Z,21.90
2019-06-15T18:48:37.854Z,21.80
2019-06-15T18:51:18.053Z,21.70
2019-06-15T18:53:58.155Z,21.60
2019-06-15T18:56:38.319Z,21.40
2019-06-15T18:59:18.784Z,21.10
2019-06-15T19:01:58.607Z,21.00
2019-06-15T19:04:38.831Z,20.90
2019-06-15T19:07:18.973Z,20.80
2019-06-15T19:09:58.505Z,20.80
2019-06-15T19:12:39.181Z,20.80
2019-06-15T19:15:19.243Z,20.50
2019-06-15T19:17:59.861Z,20.40
2019-06-15T19:20:39.651Z,20.50
2019-06-15T19:23:20.066Z,20.30
2019-06-15T19:25:59.912Z,20.20
2019-06-15T19:28:40.215Z,20.20
2019-06-15T19:31:20.364Z,20.20
2019-06-15T19:34:01.096Z,20.10
2019-06-15T19:36:41.409Z,19.90
2019-06-15T19:39:21.441Z,19.90
2019-06-15T19:42:01.751Z,19.80
2019-06-15T19:44:43.081Z,19.80
2019-06-15T19:47:23.177Z,19.80
2019-06-15T19:50:03.105Z,19.60
2019-06-15T19:52:43.329Z,19.50
2019-06-15T19:55:23.320Z,19.30
2019-06-15T19:58:03.711Z,19.00
2019-06-15T20:00:43.449Z,19.00
2019-06-15T20:03:23.737Z,19.10
2019-06-15T20:06:06.192Z,19.30
2019-06-15T20:08:46.915Z,19.30
2019-06-15T20:11:27.850Z,19.20
2019-06-15T20:13:56.215Z,19.20
2019-06-15T20:16:56.120Z,19.10
2019-06-15T20:19:46.552Z,19.00
2019-06-15T20:22:27.471Z,19.00
2019-06-15T20:25:08.561Z,19.00
2019-06-15T20:27:49.758Z,18.90
2019-06-15T20:30:29.882Z,18.70
2019-06-15T20:33:09.585Z,18.80
2019-06-15T20:35:37.059Z,18.70
2019-06-15T20:38:23.829Z,18.70
2019-06-15T20:41:03.797Z,18.30
2019-06-15T20:43:46.014Z,18.20
2019-06-15T20:46:27.037Z,18.30
2019-06-15T20:49:07.142Z,18.50
2019-06-15T20:51:47.302Z,18.50
2019-06-15T20:54:27.633Z,18.50
2019-06-15T20:57:07.637Z,18.50
2019-06-15T20:59:47.660Z,18.50
2019-06-15T21:02:16.095Z,18.60
2019-06-15T21:05:34.962Z,18.50
2019-06-15T21:08:12.370Z,18.40
2019-06-15T21:10:52.561Z,18.50
2019-06-15T21:13:32.706Z,18.50
2019-06-15T21:16:12.418Z,18.60
2019-06-15T21:18:52.833Z,18.60
2019-06-15T21:21:37.218Z,18.80
2019-06-15T21:24:17.030Z,18.80
2019-06-15T21:26:57.497Z,18.80
2019-06-15T21:29:37.455Z,18.90
2019-06-15T21:32:17.500Z,18.90
2019-06-15T21:34:57.639Z,18.90
2019-06-15T21:37:37.790Z,19.00
2019-06-15T21:40:47.676Z,19.00
2019-06-15T21:43:36.306Z,19.00
2019-06-15T21:46:26.533Z,19.00
2019-06-15T21:49:19.090Z,18.90
2019-06-15T21:51:58.833Z,18.80
2019-06-15T21:54:38.728Z,18.80
2019-06-15T21:57:18.577Z,18.90
2019-06-15T21:59:58.861Z,18.80
2019-06-15T22:02:38.954Z,18.60
2019-06-15T22:05:19.046Z,18.60
2019-06-15T22:07:59.399Z,18.50
2019-06-15T22:10:39.472Z,18.60
2019-06-15T22:13:19.899Z,18.60
2019-06-15T22:15:59.662Z,18.40
2019-06-15T22:18:41.315Z,18.60
2019-06-15T22:21:21.231Z,18.50
2019-06-15T22:24:01.369Z,18.40
2019-06-15T22:26:41.436Z,18.50
2019-06-15T22:29:22.033Z,18.50
2019-06-15T22:32:02.153Z,18.50
2019-06-15T22:34:41.947Z,18.50
2019-06-15T22:37:22.087Z,18.60
2019-06-15T22:40:02.066Z,18.50
2019-06-15T22:42:41.970Z,18.50
2019-06-15T22:45:22.001Z,18.40
2019-06-15T22:47:49.278Z,18.40
2019-06-15T22:50:16.509Z,18.40
2019-06-15T22:52:57.224Z,18.40
2019-06-15T22:55:37.293Z,18.40
2019-06-15T22:58:18.026Z,18.30
2019-06-15T23:00:58.638Z,18.30
2019-06-15T23:03:26.550Z,18.40
2019-06-15T23:06:15.969Z,18.40
2019-06-15T23:09:07.471Z,18.30
2019-06-15T23:11:47.288Z,18.30
2019-06-15T23:14:27.036Z,18.40
2019-06-15T23:17:07.460Z,18.30
2019-06-15T23:19:47.333Z,18.30
2019-06-15T23:22:17.183Z,18.30
2019-06-15T23:25:06.190Z,18.40
2019-06-15T23:27:46.954Z,18.40
2019-06-15T23:30:27.361Z,18.50
2019-06-15T23:33:07.758Z,18.40
2019-06-15T23:35:53.281Z,18.40
2019-06-15T23:38:33.163Z,18.30
2019-06-15T23:41:13.509Z,18.30
2019-06-15T23:43:55.835Z,18.30
2019-06-15T23:46:36.138Z,18.30
2019-06-15T23:49:16.419Z,18.30
2019-06-15T23:51:57.293Z,18.30
2019-06-15T23:54:37.805Z,18.40
2019-06-15T23:57:19.078Z,18.30
2019-06-15T23:59:58.600Z,18.30
